Terminal Aerodrome Forecast
Issued by NWS Central Illinois

Home | Current Version | Previous Version | Text Only | Print | Product List | Glossary On
Versions: 1 2 3 4 5 6 7 8 9 10 11 12 13 14 15 16 17 18 19 20 21 22 23
161
FTUS43 KILX 270522
TAFPIA
TAF
KPIA 270522Z 2706/2806 VRB04KT 5SM BR SCT008
     FM270700 01004KT 2SM BR BKN003
     FM271400 08005KT P6SM SCT130
     FM280300 09005KT P6SM SHRA VCTS SCT035CB OVC090=

USA.gov is the U.S. government's official web portal to all federal, state and local government web resources and services.